Time;durP1;ratioP1;P1;durP2;ratioP2;P2;SDS_P1;SDS_P2;PMS_P1;PMS_P2;Temp;Humidity;BMP_temperature;BMP_pressure;BME280_temperature;BME280_humidity;BME280_pressure;Samples;Min_cycle;Max_cycle;Signal;HPM_P1;HPM_P2
2023/12/30 00:00:46;;;;;;;40.85;36.72;;;;;;;4.01;100.00;96423.81;5037740;28;20557;-67
2023/12/30 00:03:11;;;;;;;34.25;29.52;;;;;;;3.98;100.00;96418.75;5042864;28;20431;-67
2023/12/30 00:05:37;;;;;;;41.38;37.10;;;;;;;3.95;100.00;96410.25;5046572;28;20028;-68
2023/12/30 00:08:02;;;;;;;39.75;35.75;;;;;;;3.92;100.00;96406.06;5042872;28;20426;-67
2023/12/30 00:10:28;;;;;;;37.33;33.72;;;;;;;3.89;100.00;96403.63;5041815;28;20032;-67
2023/12/30 00:12:53;;;;;;;35.63;32.30;;;;;;;3.83;100.00;96402.19;5043407;28;20025;-67
2023/12/30 00:15:20;;;;;;;37.20;33.45;;;;;;;3.79;100.00;96398.09;5047120;28;20017;-67
2023/12/30 00:17:46;;;;;;;33.75;30.15;;;;;;;3.74;100.00;96392.25;5042938;28;20022;-68
2023/12/30 00:20:11;;;;;;;34.35;31.13;;;;;;;3.68;100.00;96397.81;5047406;28;20037;-67
2023/12/30 00:22:37;;;;;;;35.88;32.10;;;;;;;3.63;100.00;96397.22;5048425;28;20021;-67
2023/12/30 00:25:03;;;;;;;34.03;28.73;;;;;;;3.55;100.00;96408.88;5045888;28;20028;-67
2023/12/30 00:27:29;;;;;;;39.05;35.00;;;;;;;3.51;100.00;96404.75;5047226;28;20063;-68
2023/12/30 00:29:54;;;;;;;33.97;28.83;;;;;;;3.51;100.00;96406.53;5043182;28;20482;-68
2023/12/30 00:32:20;;;;;;;35.00;31.45;;;;;;;3.45;100.00;96397.25;5047015;28;20064;-67
2023/12/30 00:34:45;;;;;;;36.47;32.50;;;;;;;3.39;100.00;96406.22;5044416;28;20017;-67
2023/12/30 00:37:13;;;;;;;35.55;26.98;;;;;;;3.33;100.00;96403.94;5046348;28;20504;-67
2023/12/30 00:39:40;;;;;;;72.55;53.17;;;;;;;3.41;100.00;96396.56;5049973;28;20029;-68
2023/12/30 00:42:06;;;;;;;54.60;39.20;;;;;;;3.46;100.00;96392.91;5037856;28;20423;-67
2023/12/30 00:44:31;;;;;;;46.47;37.60;;;;;;;3.35;100.00;96396.91;5047337;28;20445;-67
2023/12/30 00:46:56;;;;;;;41.47;34.40;;;;;;;3.33;100.00;96390.94;5040980;28;20061;-67
2023/12/30 00:49:22;;;;;;;38.70;24.80;;;;;;;3.33;100.00;96395.31;5046151;28;20033;-67
2023/12/30 00:51:47;;;;;;;51.92;33.20;;;;;;;3.35;100.00;96393.47;5042763;28;20029;-68
2023/12/30 00:54:12;;;;;;;49.92;27.35;;;;;;;3.37;100.00;96386.41;5045165;28;20096;-67
2023/12/30 00:56:38;;;;;;;48.92;38.53;;;;;;;3.37;100.00;96381.22;5045681;28;20481;-67
2023/12/30 00:59:03;;;;;;;40.08;26.48;;;;;;;3.33;100.00;96384.91;5044272;28;20432;-67
2023/12/30 01:01:28;;;;;;;51.22;38.88;;;;;;;3.31;100.00;96395.38;5039551;28;20033;-67
2023/12/30 01:03:54;;;;;;;50.92;39.85;;;;;;;3.30;100.00;96385.91;5042424;28;20025;-67
2023/12/30 01:06:19;;;;;;;47.33;35.22;;;;;;;3.25;100.00;96382.69;5049957;28;20112;-67
2023/12/30 01:08:44;;;;;;;31.33;24.00;;;;;;;3.24;100.00;96375.81;5054266;28;20028;-67
2023/12/30 01:11:11;;;;;;;27.77;23.73;;;;;;;3.20;100.00;96366.47;5046200;28;20423;-67
2023/12/30 01:13:36;;;;;;;34.15;23.98;;;;;;;3.10;100.00;96364.34;5046934;28;20021;-67
2023/12/30 01:16:05;;;;;;;31.08;23.30;;;;;;;3.06;100.00;96355.03;5044351;28;20381;-67
2023/12/30 01:18:31;;;;;;;34.95;24.63;;;;;;;3.01;100.00;96359.63;5051957;28;20416;-67
2023/12/30 01:20:56;;;;;;;45.28;26.23;;;;;;;2.91;100.00;96354.06;5048403;28;20017;-67
2023/12/30 01:23:22;;;;;;;37.00;24.48;;;;;;;2.89;100.00;96348.09;5045989;28;20493;-67
2023/12/30 01:25:47;;;;;;;26.38;22.52;;;;;;;2.86;100.00;96350.81;5045558;28;20044;-67
2023/12/30 01:28:12;;;;;;;26.92;23.60;;;;;;;2.87;100.00;96352.50;5049040;28;20040;-67
2023/12/30 01:30:38;;;;;;;28.55;22.15;;;;;;;2.79;100.00;96350.31;5044881;28;20029;-67
2023/12/30 01:33:04;;;;;;;27.00;22.88;;;;;;;2.69;100.00;96360.34;5051571;28;20068;-67
2023/12/30 01:35:30;;;;;;;24.60;20.92;;;;;;;2.61;100.00;96357.25;5049112;28;20029;-67
2023/12/30 01:37:55;;;;;;;27.17;24.65;;;;;;;2.60;100.00;96359.97;5049734;28;20043;-67
2023/12/30 01:40:20;;;;;;;26.40;23.27;;;;;;;2.60;100.00;96359.97;5047120;28;20030;-66
2023/12/30 01:42:46;;;;;;;24.30;19.73;;;;;;;2.59;100.00;96364.31;5050107;28;20025;-67
2023/12/30 01:45:12;;;;;;;21.50;19.17;;;;;;;2.46;100.00;96368.44;5046988;28;20032;-67
2023/12/30 01:47:38;;;;;;;25.33;22.85;;;;;;;2.41;100.00;96372.09;5042215;28;20037;-67
2023/12/30 01:50:07;;;;;;;19.55;17.25;;;;;;;2.40;100.00;96378.19;5050669;28;20494;-66
2023/12/30 01:52:35;;;;;;;19.50;17.25;;;;;;;2.41;100.00;96379.06;5048801;28;20025;-67
2023/12/30 01:55:01;;;;;;;17.58;15.60;;;;;;;2.38;100.00;96381.81;5045897;28;20036;-67
2023/12/30 01:57:27;;;;;;;22.10;15.98;;;;;;;2.36;100.00;96378.44;5049008;28;20025;-67
2023/12/30 01:59:53;;;;;;;17.92;16.23;;;;;;;2.37;100.00;96377.53;5048546;28;20145;-67
2023/12/30 02:02:18;;;;;;;19.48;17.15;;;;;;;2.36;100.00;96378.44;5045651;28;20026;-67
2023/12/30 02:04:44;;;;;;;18.05;16.27;;;;;;;2.30;100.00;96395.16;5051095;28;20117;-67
2023/12/30 02:07:09;;;;;;;18.70;16.70;;;;;;;2.20;100.00;96399.97;5046808;28;20032;-67
2023/12/30 02:09:35;;;;;;;21.67;18.88;;;;;;;2.17;100.00;96397.50;5054334;28;20024;-67
2023/12/30 02:12:01;;;;;;;60.88;24.40;;;;;;;2.21;100.00;96390.41;5050969;28;20017;-67
2023/12/30 02:14:27;;;;;;;30.65;23.75;;;;;;;2.28;100.00;96391.81;5044614;28;20485;-67
2023/12/30 02:16:53;;;;;;;34.05;27.90;;;;;;;2.18;100.00;96393.13;5044482;28;20545;-67
2023/12/30 02:19:19;;;;;;;24.27;20.40;;;;;;;2.17;100.00;96381.91;5051806;28;20461;-67
2023/12/30 02:21:45;;;;;;;19.90;17.33;;;;;;;2.08;100.00;96390.13;5047238;28;20041;-67
2023/12/30 02:24:10;;;;;;;21.58;17.00;;;;;;;2.07;100.00;96399.69;5044622;28;20044;-67
2023/12/30 02:26:37;;;;;;;18.67;16.40;;;;;;;2.02;100.00;96393.88;5047671;28;20110;-67
2023/12/30 02:29:02;;;;;;;21.13;17.85;;;;;;;2.01;100.00;96400.00;5054346;28;20037;-67
2023/12/30 02:31:27;;;;;;;26.75;16.70;;;;;;;2.03;100.00;96395.56;5047192;28;20029;-67
2023/12/30 02:33:53;;;;;;;53.97;18.25;;;;;;;1.97;100.00;96388.91;5050135;28;20025;-67
2023/12/30 02:36:18;;;;;;;23.67;17.02;;;;;;;2.02;100.00;96385.25;5048615;28;20038;-67
2023/12/30 02:38:43;;;;;;;18.67;16.77;;;;;;;2.09;100.00;96381.44;5054362;28;20036;-67
2023/12/30 02:41:09;;;;;;;17.25;14.70;;;;;;;2.20;100.00;96379.16;5047049;28;20449;-67
2023/12/30 02:43:46;;;;;;;17.05;14.60;;;;;;;2.29;100.00;96372.69;5041685;28;20025;-67
2023/12/30 02:46:12;;;;;;;13.65;12.25;;;;;;;2.53;100.00;96372.41;5044275;28;20029;-67
2023/12/30 02:48:38;;;;;;;13.82;11.40;;;;;;;2.59;100.00;96369.50;5055992;28;20489;-66
2023/12/30 02:51:03;;;;;;;14.45;13.05;;;;;;;2.65;100.00;96366.63;5046261;28;20068;-67
2023/12/30 02:53:28;;;;;;;15.88;13.65;;;;;;;2.71;100.00;96368.06;5049776;28;20029;-66
2023/12/30 02:55:54;;;;;;;14.40;12.60;;;;;;;2.79;100.00;96365.06;5048569;28;20413;-67
2023/12/30 02:58:19;;;;;;;14.32;12.82;;;;;;;2.82;100.00;96370.09;5053496;28;20020;-67
2023/12/30 03:00:44;;;;;;;14.70;13.23;;;;;;;2.86;100.00;96361.22;5045086;28;20056;-67
2023/12/30 03:03:10;;;;;;;13.98;12.68;;;;;;;2.91;100.00;96354.06;5050835;28;20513;-67
2023/12/30 03:05:35;;;;;;;13.45;12.15;;;;;;;2.93;100.00;96364.38;5049051;28;20511;-67
2023/12/30 03:08:02;;;;;;;11.90;10.68;;;;;;;3.01;100.00;96367.44;5050735;28;20021;-67
2023/12/30 03:10:28;;;;;;;11.80;10.43;;;;;;;3.04;100.00;96359.47;5046275;28;20028;-67
2023/12/30 03:12:53;;;;;;;11.63;10.52;;;;;;;3.08;100.00;96361.00;5050083;28;20108;-67
2023/12/30 03:15:20;;;;;;;11.65;10.63;;;;;;;3.12;100.00;96357.28;5048179;28;20564;-67
2023/12/30 03:17:45;;;;;;;11.85;10.73;;;;;;;3.18;100.00;96350.09;5045160;28;20082;-67
2023/12/30 03:20:11;;;;;;;11.50;10.40;;;;;;;3.24;100.00;96349.78;5051069;28;20028;-67
2023/12/30 03:22:36;;;;;;;10.77;9.77;;;;;;;3.26;100.00;96353.16;5049136;28;20112;-67
2023/12/30 03:25:02;;;;;;;11.07;10.00;;;;;;;3.29;100.00;96353.81;5044902;28;20053;-67
2023/12/30 03:27:27;;;;;;;13.27;12.18;;;;;;;3.34;100.00;96352.75;5050230;28;20792;-67
2023/12/30 03:29:52;;;;;;;12.07;11.07;;;;;;;3.34;100.00;96358.78;5047779;28;20056;-67
2023/12/30 03:32:18;;;;;;;10.57;9.60;;;;;;;3.34;100.00;96353.56;5046394;28;20040;-67
2023/12/30 03:34:43;;;;;;;10.45;9.38;;;;;;;3.38;100.00;96339.47;5042524;28;20079;-67
2023/12/30 03:37:08;;;;;;;9.90;9.07;;;;;;;3.35;100.00;96342.25;5043710;28;20033;-67
2023/12/30 03:39:34;;;;;;;9.52;8.63;;;;;;;3.37;100.00;96336.97;5055234;28;20028;-67
2023/12/30 03:41:59;;;;;;;9.35;8.55;;;;;;;3.42;100.00;96343.59;5051950;28;20600;-67
2023/12/30 03:44:24;;;;;;;9.27;8.63;;;;;;;3.43;100.00;96339.22;5049401;28;20045;-67
2023/12/30 03:46:50;;;;;;;9.70;8.80;;;;;;;3.40;100.00;96337.63;5051689;28;20040;-67
2023/12/30 03:49:15;;;;;;;8.38;7.57;;;;;;;3.37;100.00;96340.41;5046747;28;20083;-67
2023/12/30 03:51:41;;;;;;;9.07;8.13;;;;;;;3.37;100.00;96339.56;5048458;28;20379;-66
2023/12/30 03:54:06;;;;;;;8.15;7.40;;;;;;;3.40;100.00;96334.19;5050429;28;20049;-67
2023/12/30 03:56:32;;;;;;;9.55;7.05;;;;;;;3.44;100.00;96336.56;5047071;28;20021;-67
2023/12/30 03:58:59;;;;;;;9.90;9.10;;;;;;;3.44;100.00;96328.75;5041056;28;20052;-67
2023/12/30 04:01:25;;;;;;;10.27;9.27;;;;;;;3.43;100.00;96329.69;5047632;28;20082;-67
2023/12/30 04:03:51;;;;;;;21.42;19.23;;;;;;;3.39;100.00;96328.13;5046318;28;20017;-67
2023/12/30 04:06:18;;;;;;;12.80;11.60;;;;;;;3.36;100.00;96330.06;5040807;28;20029;-67
2023/12/30 04:08:44;;;;;;;12.23;11.23;;;;;;;3.31;100.00;96322.50;5040930;28;20021;-67
2023/12/30 04:11:09;;;;;;;12.18;10.98;;;;;;;3.28;100.00;96320.06;5045357;28;20029;-67
2023/12/30 04:13:35;;;;;;;10.18;8.88;;;;;;;3.24;100.00;96323.75;5050481;28;20440;-67
2023/12/30 04:16:00;;;;;;;11.70;10.50;;;;;;;3.17;100.00;96325.84;5045172;28;20026;-67
2023/12/30 04:18:26;;;;;;;12.73;11.43;;;;;;;3.09;100.00;96325.38;5051409;28;20446;-67
2023/12/30 04:20:51;;;;;;;12.68;11.38;;;;;;;3.08;100.00;96327.16;5048357;28;20034;-67
2023/12/30 04:23:16;;;;;;;15.90;12.27;;;;;;;3.08;100.00;96332.38;5053721;28;20451;-67
2023/12/30 04:25:42;;;;;;;14.43;12.93;;;;;;;3.06;100.00;96326.41;5042270;28;20486;-67
2023/12/30 04:28:07;;;;;;;17.50;14.80;;;;;;;3.04;100.00;96327.41;5053887;28;20045;-67
2023/12/30 04:30:33;;;;;;;14.65;13.25;;;;;;;2.99;100.00;96330.25;5047538;28;20029;-67
2023/12/30 04:32:58;;;;;;;12.88;11.50;;;;;;;2.97;100.00;96332.06;5044192;28;20670;-67
2023/12/30 04:35:23;;;;;;;14.32;13.02;;;;;;;2.90;100.00;96326.38;5046444;28;20059;-67
2023/12/30 04:37:49;;;;;;;10.45;9.55;;;;;;;2.86;100.00;96330.88;5054688;28;20025;-67
2023/12/30 04:40:14;;;;;;;12.30;11.15;;;;;;;2.83;100.00;96324.97;5042806;28;20072;-66
2023/12/30 04:42:39;;;;;;;10.23;8.82;;;;;;;3.26;100.00;96321.91;5042448;28;20639;-67
2023/12/30 04:45:12;;;;;;;13.15;11.95;;;;;;;3.42;100.00;96327.97;5044108;28;20564;-67
2023/12/30 04:47:37;;;;;;;9.95;9.05;;;;;;;3.45;100.00;96332.19;5049371;28;20085;-67
2023/12/30 04:50:03;;;;;;;10.48;9.48;;;;;;;3.26;100.00;96327.94;5043248;28;20883;-66
2023/12/30 04:52:28;;;;;;;9.55;8.00;;;;;;;3.12;100.00;96328.69;5049153;28;20053;-67
2023/12/30 04:54:53;;;;;;;10.40;9.40;;;;;;;3.01;100.00;96328.41;5042440;28;20025;-66
2023/12/30 04:57:19;;;;;;;10.40;9.43;;;;;;;2.86;100.00;96325.66;5047058;28;20099;-66
2023/12/30 04:59:44;;;;;;;12.32;11.05;;;;;;;2.77;100.00;96331.34;5050336;28;20422;-66
2023/12/30 05:02:10;;;;;;;12.48;11.38;;;;;;;2.70;100.00;96337.75;5047974;28;20025;-67
2023/12/30 05:04:35;;;;;;;10.75;9.75;;;;;;;2.65;100.00;96342.38;5049750;28;20025;-67
2023/12/30 05:07:00;;;;;;;10.48;9.48;;;;;;;2.62;100.00;96342.53;5041830;28;20028;-67
2023/12/30 05:09:26;;;;;;;10.35;9.45;;;;;;;2.58;100.00;96344.44;5050753;28;20032;-66
2023/12/30 05:11:51;;;;;;;11.52;10.15;;;;;;;2.52;100.00;96350.75;5046192;28;20029;-67
2023/12/30 05:14:18;;;;;;;9.75;8.85;;;;;;;2.44;100.00;96345.13;5045424;28;20025;-66
2023/12/30 05:16:45;;;;;;;11.10;10.07;;;;;;;2.36;100.00;96342.88;5039221;28;20029;-67
2023/12/30 05:19:14;;;;;;;10.90;9.90;;;;;;;2.30;100.00;96338.00;5048274;28;20028;-66
2023/12/30 05:21:39;;;;;;;9.43;8.50;;;;;;;2.22;100.00;96338.38;5049962;28;20162;-66
2023/12/30 05:24:05;;;;;;;10.85;9.85;;;;;;;2.18;100.00;96336.84;5049279;28;20049;-67
2023/12/30 05:26:31;;;;;;;17.02;12.13;;;;;;;2.09;100.00;96329.47;5042640;28;20116;-67
2023/12/30 05:28:57;;;;;;;11.85;10.35;;;;;;;2.00;100.00;96333.38;5048080;28;20052;-66
2023/12/30 05:31:23;;;;;;;11.15;10.05;;;;;;;1.93;100.00;96322.44;5047130;28;20033;-66
2023/12/30 05:33:48;;;;;;;9.95;9.00;;;;;;;1.94;100.00;96336.25;5043890;28;20032;-66
2023/12/30 05:36:14;;;;;;;8.93;8.13;;;;;;;1.96;100.00;96332.69;5051429;28;20562;-67
2023/12/30 05:38:39;;;;;;;8.43;7.72;;;;;;;1.92;100.00;96336.34;5053638;28;20517;-67
2023/12/30 05:41:04;;;;;;;7.22;6.63;;;;;;;1.90;100.00;96330.38;5048393;28;20051;-67
2023/12/30 05:43:30;;;;;;;6.90;6.22;;;;;;;1.88;100.00;96329.63;5043411;28;20455;-66
2023/12/30 05:45:55;;;;;;;7.68;7.07;;;;;;;1.82;100.00;96329.88;5045506;28;20022;-67
2023/12/30 05:48:20;;;;;;;7.28;6.70;;;;;;;1.81;100.00;96329.06;5066446;28;20042;-67
2023/12/30 05:50:46;;;;;;;7.18;6.57;;;;;;;1.79;100.00;96333.47;5044881;28;20079;-67
2023/12/30 05:53:11;;;;;;;6.43;5.93;;;;;;;1.67;100.00;96334.03;5047149;28;20032;-67
2023/12/30 05:55:38;;;;;;;7.32;6.55;;;;;;;1.92;100.00;96332.88;5049075;28;20615;-66
2023/12/30 05:58:04;;;;;;;6.88;6.10;;;;;;;1.79;100.00;96332.63;5051509;28;20100;-67
2023/12/30 06:00:29;;;;;;;7.43;6.82;;;;;;;1.74;100.00;96326.81;5050945;28;20140;-66
2023/12/30 06:02:55;;;;;;;8.55;7.72;;;;;;;1.81;100.00;96329.06;5052377;28;20021;-67
2023/12/30 06:05:20;;;;;;;14.02;9.20;;;;;;;1.97;100.00;96331.75;5050792;28;20034;-66
2023/12/30 06:07:46;;;;;;;9.73;8.65;;;;;;;1.99;100.00;96334.28;5055284;28;20025;-66
2023/12/30 06:10:12;;;;;;;10.35;8.35;;;;;;;1.85;100.00;96338.38;5047104;28;20032;-67
2023/12/30 06:12:38;;;;;;;9.20;8.18;;;;;;;1.80;100.00;96336.91;5048516;28;20029;-66
2023/12/30 06:15:04;;;;;;;8.55;7.38;;;;;;;1.82;100.00;96332.47;5044445;28;20354;-67
2023/12/30 06:17:29;;;;;;;8.73;7.82;;;;;;;1.73;100.00;96332.91;5049311;28;20025;-66
2023/12/30 06:19:55;;;;;;;8.88;7.97;;;;;;;1.66;100.00;96328.03;5050520;28;20485;-67
2023/12/30 06:22:21;;;;;;;10.73;8.73;;;;;;;1.60;100.00;96332.66;5051515;28;20017;-67
2023/12/30 06:24:46;;;;;;;14.57;13.15;;;;;;;1.57;100.00;96333.63;5045981;28;20028;-67
2023/12/30 06:27:12;;;;;;;17.67;12.43;;;;;;;1.58;100.00;96337.91;5054263;28;20020;-66
2023/12/30 06:29:37;;;;;;;17.35;12.98;;;;;;;1.55;100.00;96343.25;5049579;28;20052;-66
2023/12/30 06:32:03;;;;;;;17.20;14.20;;;;;;;1.55;100.00;96335.44;5052805;28;20088;-67
2023/12/30 06:34:28;;;;;;;22.63;17.30;;;;;;;1.53;100.00;96332.09;5049908;28;20028;-66
2023/12/30 06:36:54;;;;;;;27.60;18.67;;;;;;;1.52;100.00;96333.00;5044578;28;20107;-67
2023/12/30 06:39:20;;;;;;;17.48;15.77;;;;;;;1.49;100.00;96338.34;5052213;28;20555;-67
2023/12/30 06:41:46;;;;;;;18.98;15.43;;;;;;;1.42;100.00;96341.19;5049695;28;20025;-66
2023/12/30 06:44:11;;;;;;;28.40;21.70;;;;;;;1.39;100.00;96337.91;5046133;28;20101;-66
2023/12/30 06:46:37;;;;;;;28.08;19.58;;;;;;;1.35;100.00;96333.78;5052287;28;20049;-66
2023/12/30 06:49:02;;;;;;;21.65;16.83;;;;;;;1.30;100.00;96336.56;5051999;28;20031;-66
2023/12/30 06:51:28;;;;;;;16.42;14.73;;;;;;;1.26;100.00;96335.03;5051413;28;20035;-66
2023/12/30 06:53:54;;;;;;;19.67;16.17;;;;;;;1.32;100.00;96332.16;5048798;28;20025;-67
2023/12/30 06:56:20;;;;;;;19.75;17.75;;;;;;;1.32;100.00;96336.47;5047410;28;20099;-66
2023/12/30 06:58:45;;;;;;;19.77;17.30;;;;;;;1.35;100.00;96329.41;5051075;28;20021;-67
2023/12/30 07:01:13;;;;;;;19.85;17.70;;;;;;;1.35;100.00;96333.78;5040432;28;20021;-66
2023/12/30 07:03:39;;;;;;;19.58;17.38;;;;;;;1.34;100.00;96337.28;5051982;28;20037;-66
2023/12/30 07:06:04;;;;;;;18.88;16.92;;;;;;;1.30;100.00;96341.75;5051808;28;20027;-67
2023/12/30 07:08:30;;;;;;;21.52;19.42;;;;;;;1.25;100.00;96343.72;5052916;28;20021;-66
2023/12/30 07:10:55;;;;;;;23.10;20.60;;;;;;;1.21;100.00;96348.19;5045917;28;20605;-66
2023/12/30 07:13:21;;;;;;;20.77;18.60;;;;;;;1.17;100.00;96346.66;5047525;28;20075;-66
2023/12/30 07:15:47;;;;;;;17.77;15.88;;;;;;;1.12;100.00;96352.03;5050825;28;20036;-67
2023/12/30 07:18:13;;;;;;;25.98;17.58;;;;;;;1.13;100.00;96345.13;5042817;28;20107;-66
2023/12/30 07:20:38;;;;;;;21.05;17.00;;;;;;;1.14;100.00;96350.22;5054355;28;20080;-66
2023/12/30 07:23:05;;;;;;;22.60;17.13;;;;;;;1.14;100.00;96349.38;5049783;28;20070;-66
2023/12/30 07:25:31;;;;;;;27.08;18.77;;;;;;;1.15;100.00;96345.88;5048762;28;20048;-66
2023/12/30 07:27:56;;;;;;;30.13;19.90;;;;;;;1.15;100.00;96351.06;5050640;28;20021;-66
2023/12/30 07:30:22;;;;;;;29.02;19.17;;;;;;;1.18;100.00;96355.25;5045939;28;20478;-66
2023/12/30 07:32:47;;;;;;;38.58;22.05;;;;;;;1.13;100.00;96352.91;5042013;28;20028;-66
2023/12/30 07:35:13;;;;;;;30.77;24.23;;;;;;;1.10;100.00;96350.41;5051351;28;20494;-66
2023/12/30 07:37:38;;;;;;;22.83;19.58;;;;;;;1.13;100.00;96350.31;5049143;28;20039;-66
2023/12/30 07:40:06;;;;;;;27.10;18.77;;;;;;;1.13;100.00;96345.94;5046451;28;20029;-66
2023/12/30 07:42:31;;;;;;;23.85;18.83;;;;;;;1.16;100.00;96349.31;5042475;28;20485;-66
2023/12/30 07:44:57;;;;;;;23.83;17.10;;;;;;;1.20;100.00;96351.69;5050523;28;20111;-66
2023/12/30 07:47:22;;;;;;;21.83;17.10;;;;;;;1.17;100.00;96349.25;5050200;28;20041;-66
2023/12/30 07:49:47;;;;;;;22.70;16.60;;;;;;;1.16;100.00;96344.97;5048652;28;20017;-66
2023/12/30 07:52:13;;;;;;;24.73;17.83;;;;;;;1.10;100.00;96353.84;5050048;28;20017;-66
2023/12/30 07:54:38;;;;;;;43.05;26.58;;;;;;;1.13;100.00;96343.34;5047375;28;20021;-66
2023/12/30 07:57:04;;;;;;;36.60;26.38;;;;;;;1.16;100.00;96349.31;5043374;28;20029;-66
2023/12/30 07:59:29;;;;;;;29.58;20.48;;;;;;;1.16;100.00;96352.75;5045000;28;20120;-66
2023/12/30 08:01:56;;;;;;;27.98;19.95;;;;;;;1.18;100.00;96350.06;5043327;28;20038;-66
2023/12/30 08:04:22;;;;;;;29.70;20.00;;;;;;;1.21;100.00;96355.97;5055139;28;20108;-66
2023/12/30 08:06:48;;;;;;;26.80;20.30;;;;;;;1.22;100.00;96351.66;5046825;28;20035;-66
2023/12/30 08:09:14;;;;;;;29.30;22.98;;;;;;;1.22;100.00;96351.66;5046773;28;20379;-66
2023/12/30 08:11:39;;;;;;;35.75;28.70;;;;;;;1.24;100.00;96348.06;5050487;28;20029;-66
2023/12/30 08:14:05;;;;;;;37.30;30.05;;;;;;;1.32;100.00;96349.47;5050734;28;20041;-66
2023/12/30 08:16:30;;;;;;;34.10;25.13;;;;;;;1.39;100.00;96338.72;5051520;28;20092;-67
2023/12/30 08:18:56;;;;;;;27.60;23.77;;;;;;;1.41;100.00;96342.09;5050135;28;20512;-66
2023/12/30 08:21:21;;;;;;;26.25;22.85;;;;;;;1.50;100.00;96342.63;5047585;28;20386;-66
2023/12/30 08:23:47;;;;;;;29.70;22.35;;;;;;;1.60;100.00;96343.03;5049903;28;20521;-68
2023/12/30 08:26:12;;;;;;;24.83;22.23;;;;;;;1.65;100.00;96347.06;5045237;28;20059;-69
2023/12/30 08:28:37;;;;;;;25.38;22.05;;;;;;;1.74;100.00;96339.78;5044457;28;20024;-72
2023/12/30 08:31:03;;;;;;;26.02;23.42;;;;;;;1.83;100.00;96334.16;5047951;28;20028;-73
2023/12/30 08:33:28;;;;;;;28.27;24.30;;;;;;;1.91;100.00;96332.06;5047003;28;20035;-69
2023/12/30 08:35:54;;;;;;;26.10;21.73;;;;;;;1.96;100.00;96334.41;5053505;28;20032;-71
2023/12/30 08:38:19;;;;;;;29.58;23.70;;;;;;;1.98;100.00;96336.03;5043789;28;20039;-70
2023/12/30 08:40:45;;;;;;;31.92;25.55;;;;;;;2.02;100.00;96338.47;5049309;28;20480;-69
2023/12/30 08:43:12;;;;;;;42.58;34.08;;;;;;;2.02;100.00;96331.53;5050653;28;20062;-70
2023/12/30 08:45:38;;;;;;;44.63;36.60;;;;;;;2.00;100.00;96335.97;5065315;28;20037;-70
2023/12/30 08:48:04;;;;;;;38.03;31.13;;;;;;;2.03;100.00;96328.03;5049150;28;20044;-70
2023/12/30 08:50:32;;;;;;;81.40;64.35;;;;;;;2.05;100.00;96322.75;5044367;28;20029;-71
2023/12/30 08:52:58;;;;;;;59.95;47.72;;;;;;;2.06;100.00;96325.28;5047727;28;20025;-69
2023/12/30 08:55:23;;;;;;;52.92;41.85;;;;;;;2.11;100.00;96327.66;5042857;28;20561;-70
2023/12/30 08:57:49;;;;;;;45.03;35.55;;;;;;;2.12;100.00;96330.19;5040944;28;20085;-71
2023/12/30 09:00:15;;;;;;;52.92;35.90;;;;;;;2.11;100.00;96322.47;5045875;28;20035;-70
2023/12/30 09:02:46;;;;;;;48.58;34.28;;;;;;;2.12;100.00;96329.34;5049828;28;20147;-70
2023/12/30 09:05:17;;;;;;;55.00;33.65;;;;;;;2.11;100.00;96327.66;5046364;28;20082;-72
2023/12/30 09:07:42;;;;;;;50.58;33.85;;;;;;;2.08;100.00;96327.78;5044071;28;20031;-70
2023/12/30 09:10:08;;;;;;;49.35;35.28;;;;;;;2.04;100.00;96327.13;5049872;28;20133;-72
2023/12/30 09:12:33;;;;;;;56.33;34.28;;;;;;;2.00;100.00;96325.59;5047478;28;20086;-71
2023/12/30 09:14:59;;;;;;;47.78;34.40;;;;;;;1.98;100.00;96333.44;5042456;28;20104;-69
2023/12/30 09:17:24;;;;;;;59.80;40.17;;;;;;;1.97;100.00;96336.09;5050575;28;20457;-70
2023/12/30 09:19:49;;;;;;;74.60;49.70;;;;;;;1.93;100.00;96334.56;5047795;28;20021;-71
2023/12/30 09:22:16;;;;;;;40.47;29.05;;;;;;;1.95;100.00;96335.34;5048062;28;20025;-70
2023/12/30 09:24:41;;;;;;;30.10;26.95;;;;;;;1.99;100.00;96334.28;5051623;28;20711;-72
2023/12/30 09:27:08;;;;;;;30.45;25.58;;;;;;;1.97;100.00;96329.16;5047756;28;20100;-70
2023/12/30 09:29:33;;;;;;;30.38;27.17;;;;;;;1.95;100.00;96333.59;5055505;28;20029;-71
2023/12/30 09:31:59;;;;;;;26.75;23.92;;;;;;;1.95;100.00;96323.19;5056905;28;20024;-70
2023/12/30 09:34:24;;;;;;;27.42;24.02;;;;;;;1.98;100.00;96328.25;5050735;28;20055;-71
2023/12/30 09:36:49;;;;;;;28.63;25.33;;;;;;;2.02;100.00;96321.16;5056263;28;20354;-70
2023/12/30 09:39:15;;;;;;;34.67;29.65;;;;;;;2.19;100.00;96322.06;5053837;28;20391;-72
2023/12/30 09:41:41;;;;;;;52.60;42.67;;;;;;;2.53;100.00;96312.63;5051198;28;20056;-73
2023/12/30 09:44:07;;;;;;;55.25;44.53;;;;;;;2.99;100.00;96299.03;5051710;28;20540;-72
2023/12/30 09:46:35;;;;;;;52.42;46.58;;;;;;;3.51;100.00;96303.19;5055694;28;20124;-74
2023/12/30 09:49:05;;;;;;;35.55;31.75;;;;;;;3.96;100.00;96295.53;5044564;28;20450;-73
2023/12/30 09:51:32;;;;;;;21.67;19.38;;;;;;;4.38;100.00;96294.97;5054143;28;20768;-73
2023/12/30 09:53:58;;;;;;;26.63;23.20;;;;;;;4.76;100.00;96293.63;5043042;28;20144;-73
2023/12/30 09:56:24;;;;;;;15.80;14.20;;;;;;;4.89;100.00;96305.03;5046018;28;20108;-71
2023/12/30 09:58:50;;;;;;;14.80;13.40;;;;;;;5.07;100.00;96312.66;5046896;28;20032;-73
2023/12/30 10:01:16;;;;;;;12.50;10.77;;;;;;;5.20;100.00;96324.06;5049138;28;20060;-74
2023/12/30 10:03:42;;;;;;;15.25;13.82;;;;;;;5.34;100.00;96325.81;5053748;28;20029;-74
2023/12/30 10:06:11;;;;;;;23.35;21.05;;;;;;;5.45;100.00;96336.47;5055290;28;20363;-76
2023/12/30 10:08:37;;;;;;;17.30;15.50;;;;;;;5.65;100.00;96344.84;5044382;28;20028;-74
2023/12/30 10:11:08;;;;;;;15.48;13.88;;;;;;;5.81;100.00;96359.53;5048056;28;20563;-73
2023/12/30 10:13:36;;;;;;;13.75;12.18;;;;;;;5.99;100.00;96363.59;5052824;28;20021;-76
2023/12/30 10:16:05;;;;;;;10.65;9.25;;;;;;;6.15;100.00;96368.72;5048609;28;20032;-75
2023/12/30 10:18:37;;;;;;;10.98;9.85;;;;;;;6.30;100.00;96381.78;5051902;28;20508;-73
2023/12/30 10:21:04;;;;;;;11.98;10.68;;;;;;;6.45;100.00;96385.16;5051098;28;20041;-75
2023/12/30 10:23:34;;;;;;;15.07;13.57;;;;;;;6.49;100.00;96373.56;5056312;28;20036;-77
2023/12/30 10:26:03;;;;;;;12.60;10.30;;;;;;;6.72;100.00;96376.44;5042411;28;20025;-77
2023/12/30 10:28:29;;;;;;;10.55;9.63;;;;;;;6.99;100.00;96354.63;5051141;28;20028;-77
2023/12/30 10:31:05;;;;;;;8.43;7.72;;;;;;;7.28;100.00;96357.88;5049189;28;20025;-70
2023/12/30 10:33:32;;;;;;;10.02;8.93;;;;;;;7.54;100.00;96357.03;5052637;28;20390;-71
2023/12/30 10:35:58;;;;;;;10.98;9.98;;;;;;;7.66;100.00;96356.19;5049788;28;20477;-72
2023/12/30 10:38:24;;;;;;;12.07;10.82;;;;;;;7.72;100.00;96340.00;5045716;28;20047;-71
2023/12/30 10:40:50;;;;;;;19.15;16.98;;;;;;;7.82;100.00;96331.47;5050410;28;20836;-72
2023/12/30 10:43:17;;;;;;;10.57;9.57;;;;;;;7.92;100.00;96337.75;5052568;28;20037;-72
2023/12/30 10:45:42;;;;;;;8.80;7.90;;;;;;;8.07;100.00;96337.59;5046314;28;20029;-73
2023/12/30 10:48:08;;;;;;;6.50;5.97;;;;;;;8.22;100.00;96327.81;5045247;28;20045;-72
2023/12/30 10:50:38;;;;;;;4.30;3.97;;;;;;;8.27;100.00;96323.88;5052129;28;20027;-74
2023/12/30 10:53:11;;;;;;;7.57;6.88;;;;;;;8.24;100.00;96321.47;5050276;28;20032;-73
2023/12/30 10:55:42;;;;;;;6.00;5.50;;;;;;;8.23;100.00;96319.81;5045878;28;20029;-73
2023/12/30 10:58:19;;;;;;;6.00;5.57;;;;;;;8.24;100.00;96320.66;5045110;28;20431;-71
2023/12/30 11:01:06;;;;;;;5.95;5.40;;;;;;;8.23;100.00;96311.94;5050701;28;20562;-72
2023/12/30 11:03:34;;;;;;;5.32;4.90;;;;;;;8.32;100.00;96298.16;5049098;28;20037;-73
2023/12/30 11:06:22;;;;;;;5.22;4.82;;;;;;;8.40;100.00;96281.00;5045121;28;20068;-75
2023/12/30 11:08:48;;;;;;;5.93;4.25;;;;;;;8.57;100.00;96275.38;5046855;28;20036;-73
2023/12/30 11:11:14;;;;;;;6.60;6.00;;;;;;;8.60;100.00;96264.63;5042160;28;20026;-71
2023/12/30 11:13:44;;;;;;;4.28;3.97;;;;;;;8.59;100.00;96260.34;5039108;28;20028;-71